Bellerose, New York
Current Conditions -  °F | °C
As of 12:51 AM on Friday 28 Nov 2014 (Local Time) from KJFK Reporting Station
Few Clouds Few Clouds  
Wind Chill: 26°   Ceiling: Unl
Heat Index: 34°   Visibility: 10mi
Dew Point: 24°   Wind: 10mph
Humidity: 67%   Direction: 310°NW
Pressure: 30.07"   Gusts: NA
Location:  40.72°N, 73.72°W
Report Text: KJFK 280551Z 31009KT 10SM FEW030 01/M04 A3007 RMK AO2 SLP182 T00111044 10033 20011 52003 $
Loading
Personal Weather Stations






























Interactive Weather Map New forecast layout! Learn more

10-Day Weather Forecast

Advertisements
Track Severe Weather on mobile